sensor_id;sensor_type;location;lat;lon;timestamp;pressure;altitude;pressure_sealevel;temperature;humidity
34925;BME280;21130;51.728;8.748;2023-10-19T00:02:13;98544.50;;;7.61;100.00
34925;BME280;21130;51.728;8.748;2023-10-19T00:04:40;98544.25;;;7.63;100.00
34925;BME280;21130;51.728;8.748;2023-10-19T00:07:07;98547.50;;;7.54;100.00
34925;BME280;21130;51.728;8.748;2023-10-19T00:09:34;98557.47;;;7.55;100.00
34925;BME280;21130;51.728;8.748;2023-10-19T00:12:04;98548.63;;;7.53;100.00
34925;BME280;21130;51.728;8.748;2023-10-19T00:14:31;98553.59;;;7.51;100.00
34925;BME280;21130;51.728;8.748;2023-10-19T00:16:58;98558.53;;;7.49;100.00
34925;BME280;21130;51.728;8.748;2023-10-19T00:19:26;98558.53;;;7.44;100.00
34925;BME280;21130;51.728;8.748;2023-10-19T00:21:54;98559.34;;;7.34;100.00
34925;BME280;21130;51.728;8.748;2023-10-19T00:24:20;98551.59;;;7.31;100.00
34925;BME280;21130;51.728;8.748;2023-10-19T00:26:50;98542.25;;;7.32;100.00
34925;BME280;21130;51.728;8.748;2023-10-19T00:29:19;98546.38;;;7.35;100.00
34925;BME280;21130;51.728;8.748;2023-10-19T00:31:56;98549.16;;;7.40;100.00
34925;BME280;21130;51.728;8.748;2023-10-19T00:34:23;98545.84;;;7.43;100.00
34925;BME280;21130;51.728;8.748;2023-10-19T00:36:50;98526.53;;;7.43;100.00
34925;BME280;21130;51.728;8.748;2023-10-19T00:39:17;98529.56;;;7.42;100.00
34925;BME280;21130;51.728;8.748;2023-10-19T00:41:46;98534.81;;;7.43;100.00
34925;BME280;21130;51.728;8.748;2023-10-19T00:44:15;98519.34;;;7.42;100.00
34925;BME280;21130;51.728;8.748;2023-10-19T00:46:47;98512.44;;;7.45;100.00
34925;BME280;21130;51.728;8.748;2023-10-19T00:49:17;98515.50;;;7.48;100.00
34925;BME280;21130;51.728;8.748;2023-10-19T00:51:51;98512.19;;;7.46;100.00
34925;BME280;21130;51.728;8.748;2023-10-19T00:54:29;98517.97;;;7.45;100.00
34925;BME280;21130;51.728;8.748;2023-10-19T00:57:01;98513.00;;;7.42;100.00
34925;BME280;21130;51.728;8.748;2023-10-19T00:59:33;98501.69;;;7.38;100.00
34925;BME280;21130;51.728;8.748;2023-10-19T01:02:04;98503.63;;;7.38;100.00
34925;BME280;21130;51.728;8.748;2023-10-19T01:04:43;98503.63;;;7.38;100.00
34925;BME280;21130;51.728;8.748;2023-10-19T01:07:11;98505.25;;;7.33;100.00
34925;BME280;21130;51.728;8.748;2023-10-19T01:09:41;98503.06;;;7.35;100.00
34925;BME280;21130;51.728;8.748;2023-10-19T01:12:09;98489.81;;;7.32;100.00
34925;BME280;21130;51.728;8.748;2023-10-19T01:15:06;98494.78;;;7.30;100.00
34925;BME280;21130;51.728;8.748;2023-10-19T01:17:38;98500.00;;;7.32;100.00
34925;BME280;21130;51.728;8.748;2023-10-19T01:20:09;98493.09;;;7.29;100.00
34925;BME280;21130;51.728;8.748;2023-10-19T01:22:49;98490.34;;;7.29;100.00
34925;BME280;21130;51.728;8.748;2023-10-19T01:25:18;98490.06;;;7.26;100.00
34925;BME280;21130;51.728;8.748;2023-10-19T01:27:49;98487.56;;;7.29;100.00
34925;BME280;21130;51.728;8.748;2023-10-19T01:30:20;98485.66;;;7.25;100.00
34925;BME280;21130;51.728;8.748;2023-10-19T01:32:46;98471.00;;;7.24;100.00
34925;BME280;21130;51.728;8.748;2023-10-19T01:35:13;98471.56;;;7.26;100.00
34925;BME280;21130;51.728;8.748;2023-10-19T01:37:40;98460.28;;;7.28;100.00
34925;BME280;21130;51.728;8.748;2023-10-19T01:40:09;98465.78;;;7.28;100.00
34925;BME280;21130;51.728;8.748;2023-10-19T01:42:40;98455.31;;;7.30;100.00
34925;BME280;21130;51.728;8.748;2023-10-19T01:45:07;98451.72;;;7.34;100.00
34925;BME280;21130;51.728;8.748;2023-10-19T01:47:36;98451.44;;;7.36;100.00
34925;BME280;21130;51.728;8.748;2023-10-19T01:50:06;98444.28;;;7.35;100.00
34925;BME280;21130;51.728;8.748;2023-10-19T01:52:45;98446.19;;;7.40;100.00
34925;BME280;21130;51.728;8.748;2023-10-19T01:55:13;98448.69;;;7.41;100.00
34925;BME280;21130;51.728;8.748;2023-10-19T01:57:45;98445.94;;;7.46;100.00
34925;BME280;21130;51.728;8.748;2023-10-19T02:00:13;98451.75;;;7.50;100.00
34925;BME280;21130;51.728;8.748;2023-10-19T02:02:48;98448.44;;;7.48;100.00
34925;BME280;21130;51.728;8.748;2023-10-19T02:05:15;98441.78;;;7.49;100.00
34925;BME280;21130;51.728;8.748;2023-10-19T02:07:41;98444.84;;;7.52;100.00
34925;BME280;21130;51.728;8.748;2023-10-19T02:10:08;98449.53;;;7.52;100.00
34925;BME280;21130;51.728;8.748;2023-10-19T02:12:37;98445.94;;;7.51;100.00
34925;BME280;21130;51.728;8.748;2023-10-19T02:15:07;98435.47;;;7.53;100.00
34925;BME280;21130;51.728;8.748;2023-10-19T02:17:33;98445.38;;;7.60;100.00
34925;BME280;21130;51.728;8.748;2023-10-19T02:20:00;98434.91;;;7.56;100.00
34925;BME280;21130;51.728;8.748;2023-10-19T02:22:26;98433.53;;;7.54;100.00
34925;BME280;21130;51.728;8.748;2023-10-19T02:24:53;98425.25;;;7.54;100.00
34925;BME280;21130;51.728;8.748;2023-10-19T02:27:19;98432.44;;;7.60;100.00
34925;BME280;21130;51.728;8.748;2023-10-19T02:29:48;98407.84;;;7.64;100.00
34925;BME280;21130;51.728;8.748;2023-10-19T02:32:15;98412.00;;;7.61;100.00
34925;BME280;21130;51.728;8.748;2023-10-19T02:34:44;98420.53;;;7.65;100.00
34925;BME280;21130;51.728;8.748;2023-10-19T02:37:10;98420.53;;;7.65;100.00
34925;BME280;21130;51.728;8.748;2023-10-19T02:39:37;98404.25;;;7.68;100.00
34925;BME280;21130;51.728;8.748;2023-10-19T02:42:02;98397.34;;;7.71;100.00
34925;BME280;21130;51.728;8.748;2023-10-19T02:44:29;98407.00;;;7.73;100.00
34925;BME280;21130;51.728;8.748;2023-10-19T02:46:57;98390.16;;;7.80;100.00
34925;BME280;21130;51.728;8.748;2023-10-19T02:49:25;98399.53;;;7.79;100.00
34925;BME280;21130;51.728;8.748;2023-10-19T02:51:52;98385.72;;;7.84;100.00
34925;BME280;21130;51.728;8.748;2023-10-19T02:54:20;98371.09;;;7.89;100.00
34925;BME280;21130;51.728;8.748;2023-10-19T02:56:48;98382.66;;;7.96;100.00
34925;BME280;21130;51.728;8.748;2023-10-19T02:59:15;98379.91;;;7.96;100.00
34925;BME280;21130;51.728;8.748;2023-10-19T03:01:41;98382.38;;;8.03;100.00
34925;BME280;21130;51.728;8.748;2023-10-19T03:04:10;98381.00;;;8.05;100.00
34925;BME280;21130;51.728;8.748;2023-10-19T03:06:38;98384.28;;;8.12;100.00
34925;BME280;21130;51.728;8.748;2023-10-19T03:09:07;98377.34;;;8.15;100.00
34925;BME280;21130;51.728;8.748;2023-10-19T03:11:39;98380.13;;;8.15;100.00
34925;BME280;21130;51.728;8.748;2023-10-19T03:14:06;98381.22;;;8.19;100.00
34925;BME280;21130;51.728;8.748;2023-10-19T03:16:33;98379.81;;;8.21;100.00
34925;BME280;21130;51.728;8.748;2023-10-19T03:19:00;98379.81;;;8.21;100.00
34925;BME280;21130;51.728;8.748;2023-10-19T03:21:28;98379.53;;;8.28;100.00
34925;BME280;21130;51.728;8.748;2023-10-19T03:23:57;98376.44;;;8.35;100.00
34925;BME280;21130;51.728;8.748;2023-10-19T03:26:27;98380.06;;;8.40;100.00
34925;BME280;21130;51.728;8.748;2023-10-19T03:28:56;98372.28;;;8.48;100.00
34925;BME280;21130;51.728;8.748;2023-10-19T03:31:24;98383.03;;;8.54;100.00
34925;BME280;21130;51.728;8.748;2023-10-19T03:33:51;98365.03;;;8.62;100.00
34925;BME280;21130;51.728;8.748;2023-10-19T03:36:21;98378.03;;;8.61;100.00
34925;BME280;21130;51.728;8.748;2023-10-19T03:38:50;98362.84;;;8.59;100.00
34925;BME280;21130;51.728;8.748;2023-10-19T03:41:18;98370.53;;;8.67;100.00
34925;BME280;21130;51.728;8.748;2023-10-19T03:43:47;98358.69;;;8.61;100.00
34925;BME280;21130;51.728;8.748;2023-10-19T03:46:14;98360.88;;;8.64;100.00
34925;BME280;21130;51.728;8.748;2023-10-19T03:48:48;98365.31;;;8.65;100.00
34925;BME280;21130;51.728;8.748;2023-10-19T03:51:14;98360.25;;;8.73;100.00
34925;BME280;21130;51.728;8.748;2023-10-19T03:53:42;98363.88;;;8.73;100.00
34925;BME280;21130;51.728;8.748;2023-10-19T03:56:15;98360.56;;;8.71;100.00
34925;BME280;21130;51.728;8.748;2023-10-19T03:58:43;98360.22;;;8.83;100.00
34925;BME280;21130;51.728;8.748;2023-10-19T04:01:13;98356.59;;;8.82;100.00
34925;BME280;21130;51.728;8.748;2023-10-19T04:03:42;98356.88;;;8.86;100.00
34925;BME280;21130;51.728;8.748;2023-10-19T04:06:09;98348.28;;;8.87;100.00
34925;BME280;21130;51.728;8.748;2023-10-19T04:08:41;98349.09;;;8.93;100.00
34925;BME280;21130;51.728;8.748;2023-10-19T04:11:10;98348.78;;;8.95;100.00
34925;BME280;21130;51.728;8.748;2023-10-19T04:13:48;98345.97;;;9.00;100.00
34925;BME280;21130;51.728;8.748;2023-10-19T04:16:18;98348.47;;;9.01;100.00
34925;BME280;21130;51.728;8.748;2023-10-19T04:18:45;98354.25;;;9.05;100.00
34925;BME280;21130;51.728;8.748;2023-10-19T04:21:13;98344.03;;;9.05;100.00
34925;BME280;21130;51.728;8.748;2023-10-19T04:23:40;98337.13;;;9.03;100.00
34925;BME280;21130;51.728;8.748;2023-10-19T04:26:06;98334.84;;;9.10;100.00
34925;BME280;21130;51.728;8.748;2023-10-19T04:28:38;98338.16;;;9.12;100.00
34925;BME280;21130;51.728;8.748;2023-10-19T04:31:11;98330.31;;;9.24;100.00
34925;BME280;21130;51.728;8.748;2023-10-19T04:33:41;98327.59;;;9.19;100.00
34925;BME280;21130;51.728;8.748;2023-10-19T04:36:12;98322.03;;;9.19;100.00
34925;BME280;21130;51.728;8.748;2023-10-19T04:38:39;98317.59;;;9.23;100.00
34925;BME280;21130;51.728;8.748;2023-10-19T04:41:06;98320.31;;;9.28;100.00
34925;BME280;21130;51.728;8.748;2023-10-19T04:43:34;98311.47;;;9.26;100.00
34925;BME280;21130;51.728;8.748;2023-10-19T04:46:04;98310.66;;;9.26;100.00
34925;BME280;21130;51.728;8.748;2023-10-19T04:48:34;98312.84;;;9.29;100.00
34925;BME280;21130;51.728;8.748;2023-10-19T04:51:02;98308.66;;;9.32;100.00
34925;BME280;21130;51.728;8.748;2023-10-19T04:53:30;98306.94;;;9.41;100.00
34925;BME280;21130;51.728;8.748;2023-10-19T04:55:57;98314.91;;;9.42;100.00
34925;BME280;21130;51.728;8.748;2023-10-19T04:58:25;98314.63;;;9.44;100.00
34925;BME280;21130;51.728;8.748;2023-10-19T05:00:52;98301.22;;;9.56;100.00
34925;BME280;21130;51.728;8.748;2023-10-19T05:03:19;98308.72;;;9.56;100.00
34925;BME280;21130;51.728;8.748;2023-10-19T05:05:48;98307.81;;;9.60;100.00
34925;BME280;21130;51.728;8.748;2023-10-19T05:08:14;98311.13;;;9.62;100.00
34925;BME280;21130;51.728;8.748;2023-10-19T05:10:41;98306.94;;;9.65;100.00
34925;BME280;21130;51.728;8.748;2023-10-19T05:13:07;98303.06;;;9.66;100.00
34925;BME280;21130;51.728;8.748;2023-10-19T05:15:36;98298.91;;;9.68;100.00
34925;BME280;21130;51.728;8.748;2023-10-19T05:18:04;98300.75;;;9.73;100.00
34925;BME280;21130;51.728;8.748;2023-10-19T05:20:31;98297.44;;;9.76;100.00
34925;BME280;21130;51.728;8.748;2023-10-19T05:22:59;98306.56;;;9.77;100.00
34925;BME280;21130;51.728;8.748;2023-10-19T05:25:26;98304.84;;;9.81;100.00
34925;BME280;21130;51.728;8.748;2023-10-19T05:27:52;98303.44;;;9.83;100.00
34925;BME280;21130;51.728;8.748;2023-10-19T05:30:19;98308.13;;;9.83;100.00
34925;BME280;21130;51.728;8.748;2023-10-19T05:32:47;98309.00;;;9.83;100.00
34925;BME280;21130;51.728;8.748;2023-10-19T05:35:15;98299.25;;;9.86;100.00
34925;BME280;21130;51.728;8.748;2023-10-19T05:37:48;98291.78;;;9.86;100.00
34925;BME280;21130;51.728;8.748;2023-10-19T05:40:16;98292.88;;;9.85;100.00
34925;BME280;21130;51.728;8.748;2023-10-19T05:42:44;98297.31;;;9.86;100.00
34925;BME280;21130;51.728;8.748;2023-10-19T05:45:11;98307.31;;;9.82;100.00
34925;BME280;21130;51.728;8.748;2023-10-19T05:47:38;98308.41;;;9.86;100.00
34925;BME280;21130;51.728;8.748;2023-10-19T05:50:05;98304.25;;;9.84;100.00
34925;BME280;21130;51.728;8.748;2023-10-19T05:52:32;98308.41;;;9.86;100.00
34925;BME280;21130;51.728;8.748;2023-10-19T05:54:58;98308.41;;;9.86;100.00
34925;BME280;21130;51.728;8.748;2023-10-19T05:57:26;98317.19;;;9.93;100.00
34925;BME280;21130;51.728;8.748;2023-10-19T05:59:53;98328.78;;;9.95;100.00
34925;BME280;21130;51.728;8.748;2023-10-19T06:02:20;98329.03;;;9.99;100.00
34925;BME280;21130;51.728;8.748;2023-10-19T06:04:47;98328.91;;;10.09;100.00
34925;BME280;21130;51.728;8.748;2023-10-19T06:10:21;98324.44;;;10.13;100.00
34925;BME280;21130;51.728;8.748;2023-10-19T06:12:50;98321.94;;;10.12;100.00
34925;BME280;21130;51.728;8.748;2023-10-19T06:15:19;98329.97;;;10.13;100.00
34925;BME280;21130;51.728;8.748;2023-10-19T06:17:46;98320.53;;;10.14;100.00
34925;BME280;21130;51.728;8.748;2023-10-19T06:20:15;98327.44;;;10.17;100.00
34925;BME280;21130;51.728;8.748;2023-10-19T06:22:50;98339.88;;;10.20;100.00
34925;BME280;21130;51.728;8.748;2023-10-19T06:25:18;98340.94;;;10.24;100.00
34925;BME280;21130;51.728;8.748;2023-10-19T06:27:45;98329.81;;;10.29;100.00
34925;BME280;21130;51.728;8.748;2023-10-19T06:30:15;98326.47;;;10.27;100.00
34925;BME280;21130;51.728;8.748;2023-10-19T06:32:46;98332.84;;;10.27;100.00
34925;BME280;21130;51.728;8.748;2023-10-19T06:35:13;98334.97;;;10.35;100.00
34925;BME280;21130;51.728;8.748;2023-10-19T06:37:40;98324.44;;;10.37;100.00
34925;BME280;21130;51.728;8.748;2023-10-19T06:40:08;98329.69;;;10.39;100.00
34925;BME280;21130;51.728;8.748;2023-10-19T06:42:36;98320.97;;;10.46;100.00
34925;BME280;21130;51.728;8.748;2023-10-19T06:45:02;98324.53;;;10.51;100.00
34925;BME280;21130;51.728;8.748;2023-10-19T06:47:30;98328.19;;;10.47;100.00
34925;BME280;21130;51.728;8.748;2023-10-19T06:49:57;98328.41;;;10.50;100.00
34925;BME280;21130;51.728;8.748;2023-10-19T06:52:23;98323.41;;;10.52;100.00
34925;BME280;21130;51.728;8.748;2023-10-19T06:54:50;98330.63;;;10.53;100.00
34925;BME280;21130;51.728;8.748;2023-10-19T06:57:17;98328.94;;;10.52;100.00
34925;BME280;21130;51.728;8.748;2023-10-19T06:59:44;98323.03;;;10.59;100.00
34925;BME280;21130;51.728;8.748;2023-10-19T07:02:11;98331.38;;;10.59;100.00
34925;BME280;21130;51.728;8.748;2023-10-19T07:04:39;98332.41;;;10.63;100.00
34925;BME280;21130;51.728;8.748;2023-10-19T07:07:06;98329.34;;;10.65;100.00
34925;BME280;21130;51.728;8.748;2023-10-19T07:09:34;98333.47;;;10.67;100.00
34925;BME280;21130;51.728;8.748;2023-10-19T07:12:01;98336.16;;;10.72;100.00
34925;BME280;21130;51.728;8.748;2023-10-19T07:14:28;98331.22;;;10.69;100.00
34925;BME280;21130;51.728;8.748;2023-10-19T07:16:55;98334.53;;;10.71;100.00
34925;BME280;21130;51.728;8.748;2023-10-19T07:19:22;98323.44;;;10.71;100.00
34925;BME280;21130;51.728;8.748;2023-10-19T07:21:49;98329.56;;;10.68;100.00
34925;BME280;21130;51.728;8.748;2023-10-19T07:24:22;98329.25;;;10.70;100.00
34925;BME280;21130;51.728;8.748;2023-10-19T07:26:49;98335.88;;;10.74;100.00
34925;BME280;21130;51.728;8.748;2023-10-19T07:29:30;98339.19;;;10.76;100.00
34925;BME280;21130;51.728;8.748;2023-10-19T07:31:57;98339.69;;;10.78;100.00
34925;BME280;21130;51.728;8.748;2023-10-19T07:34:24;98341.34;;;10.79;100.00
34925;BME280;21130;51.728;8.748;2023-10-19T07:36:54;98339.09;;;10.81;100.00
34925;BME280;21130;51.728;8.748;2023-10-19T07:39:23;98338.44;;;10.89;100.00
34925;BME280;21130;51.728;8.748;2023-10-19T07:41:50;98348.63;;;10.94;100.00
34925;BME280;21130;51.728;8.748;2023-10-19T07:44:17;98342.09;;;11.03;100.00
34925;BME280;21130;51.728;8.748;2023-10-19T07:46:44;98344.13;;;11.17;100.00
34925;BME280;21130;51.728;8.748;2023-10-19T07:49:10;98338.09;;;11.29;100.00
34925;BME280;21130;51.728;8.748;2023-10-19T07:51:42;98333.41;;;11.43;100.00
34925;BME280;21130;51.728;8.748;2023-10-19T07:54:12;98336.63;;;11.50;100.00
34925;BME280;21130;51.728;8.748;2023-10-19T07:56:38;98337.16;;;11.66;100.00
34925;BME280;21130;51.728;8.748;2023-10-19T07:59:05;98336.56;;;11.69;100.00
34925;BME280;21130;51.728;8.748;2023-10-19T08:01:32;98332.25;;;11.77;100.00
34925;BME280;21130;51.728;8.748;2023-10-19T08:04:01;98333.91;;;11.78;100.00
34925;BME280;21130;51.728;8.748;2023-10-19T08:06:28;98337.09;;;11.85;100.00
34925;BME280;21130;51.728;8.748;2023-10-19T08:08:56;98334.78;;;11.92;100.00
34925;BME280;21130;51.728;8.748;2023-10-19T08:11:25;98336.84;;;12.00;100.00
34925;BME280;21130;51.728;8.748;2023-10-19T08:13:52;98335.22;;;11.99;100.00
34925;BME280;21130;51.728;8.748;2023-10-19T08:16:20;98332.53;;;12.08;100.00
34925;BME280;21130;51.728;8.748;2023-10-19T08:18:46;98333.56;;;12.12;100.00
34925;BME280;21130;51.728;8.748;2023-10-19T08:21:14;98338.09;;;12.08;100.00
34925;BME280;21130;51.728;8.748;2023-10-19T08:23:40;98344.16;;;12.10;100.00
34925;BME280;21130;51.728;8.748;2023-10-19T08:26:07;98343.84;;;11.98;100.00
34925;BME280;21130;51.728;8.748;2023-10-19T08:28:35;98334.78;;;12.06;100.00
34925;BME280;21130;51.728;8.748;2023-10-19T08:31:02;98331.19;;;12.05;100.00
34925;BME280;21130;51.728;8.748;2023-10-19T08:33:30;98338.41;;;12.06;100.00
34925;BME280;21130;51.728;8.748;2023-10-19T08:35:59;98328.84;;;11.99;100.00
34925;BME280;21130;51.728;8.748;2023-10-19T08:38:25;98331.59;;;11.99;100.00
34925;BME280;21130;51.728;8.748;2023-10-19T08:40:52;98334.97;;;11.96;100.00
34925;BME280;21130;51.728;8.748;2023-10-19T08:43:20;98336.66;;;11.97;100.00
34925;BME280;21130;51.728;8.748;2023-10-19T08:45:48;98345.19;;;12.00;100.00
34925;BME280;21130;51.728;8.748;2023-10-19T08:48:14;98338.28;;;11.98;100.00
34925;BME280;21130;51.728;8.748;2023-10-19T08:50:41;98341.28;;;12.01;100.00
34925;BME280;21130;51.728;8.748;2023-10-19T08:53:09;98344.28;;;12.05;100.00
34925;BME280;21130;51.728;8.748;2023-10-19T08:55:39;98349.22;;;12.08;100.00
34925;BME280;21130;51.728;8.748;2023-10-19T08:58:06;98338.59;;;12.10;100.00
34925;BME280;21130;51.728;8.748;2023-10-19T09:00:43;98337.69;;;12.15;100.00
34925;BME280;21130;51.728;8.748;2023-10-19T09:03:15;98341.00;;;12.17;100.00
34925;BME280;21130;51.728;8.748;2023-10-19T09:05:43;98343.44;;;12.18;100.00
34925;BME280;21130;51.728;8.748;2023-10-19T09:08:14;98350.56;;;12.24;100.00
34925;BME280;21130;51.728;8.748;2023-10-19T09:10:43;98347.34;;;12.31;100.00
34925;BME280;21130;51.728;8.748;2023-10-19T09:13:14;98360.94;;;12.46;100.00
34925;BME280;21130;51.728;8.748;2023-10-19T09:15:43;98356.94;;;12.52;100.00
34925;BME280;21130;51.728;8.748;2023-10-19T09:18:16;98354.34;;;12.56;100.00
34925;BME280;21130;51.728;8.748;2023-10-19T09:20:44;98352.69;;;12.69;100.00
34925;BME280;21130;51.728;8.748;2023-10-19T09:23:19;98349.72;;;12.65;100.00
34925;BME280;21130;51.728;8.748;2023-10-19T09:25:47;98341.88;;;12.67;100.00
34925;BME280;21130;51.728;8.748;2023-10-19T09:28:14;98334.75;;;12.75;100.00
34925;BME280;21130;51.728;8.748;2023-10-19T09:30:42;98334.69;;;12.89;100.00
34925;BME280;21130;51.728;8.748;2023-10-19T09:33:09;98327.25;;;12.98;100.00
34925;BME280;21130;51.728;8.748;2023-10-19T09:35:38;98322.78;;;13.11;100.00
34925;BME280;21130;51.728;8.748;2023-10-19T09:38:08;98330.28;;;13.24;100.00
34925;BME280;21130;51.728;8.748;2023-10-19T09:40:36;98324.19;;;13.22;100.00
34925;BME280;21130;51.728;8.748;2023-10-19T09:43:04;98331.41;;;13.23;100.00
34925;BME280;21130;51.728;8.748;2023-10-19T09:45:36;98320.97;;;13.29;100.00
34925;BME280;21130;51.728;8.748;2023-10-19T09:48:05;98325.47;;;13.38;100.00
34925;BME280;21130;51.728;8.748;2023-10-19T09:50:33;98327.19;;;13.48;100.00
34925;BME280;21130;51.728;8.748;2023-10-19T09:53:02;98322.25;;;13.68;100.00
34925;BME280;21130;51.728;8.748;2023-10-19T09:55:34;98314.94;;;13.80;100.00
34925;BME280;21130;51.728;8.748;2023-10-19T09:58:06;98309.53;;;13.84;100.00
34925;BME280;21130;51.728;8.748;2023-10-19T10:00:36;98311.69;;;13.87;100.00
34925;BME280;21130;51.728;8.748;2023-10-19T10:03:04;98307.97;;;14.00;100.00
34925;BME280;21130;51.728;8.748;2023-10-19T10:05:46;98304.75;;;14.16;100.00
34925;BME280;21130;51.728;8.748;2023-10-19T10:08:36;98297.38;;;14.20;100.00
34925;BME280;21130;51.728;8.748;2023-10-19T10:11:22;98296.59;;;14.28;100.00
34925;BME280;21130;51.728;8.748;2023-10-19T10:13:50;98302.69;;;14.39;100.00
34925;BME280;21130;51.728;8.748;2023-10-19T10:16:18;98305.06;;;14.54;100.00
34925;BME280;21130;51.728;8.748;2023-10-19T10:18:47;98300.78;;;14.57;100.00
34925;BME280;21130;51.728;8.748;2023-10-19T10:21:17;98297.41;;;14.77;100.00
34925;BME280;21130;51.728;8.748;2023-10-19T10:23:47;98303.28;;;14.84;100.00
34925;BME280;21130;51.728;8.748;2023-10-19T10:26:15;98296.91;;;14.93;100.00
34925;BME280;21130;51.728;8.748;2023-10-19T10:28:46;98291.78;;;15.12;100.00
34925;BME280;21130;51.728;8.748;2023-10-19T10:31:14;98292.09;;;15.54;100.00
34925;BME280;21130;51.728;8.748;2023-10-19T10:33:42;98287.88;;;15.95;100.00
34925;BME280;21130;51.728;8.748;2023-10-19T10:36:12;98285.56;;;17.16;100.00
34925;BME280;21130;51.728;8.748;2023-10-19T10:38:39;98265.00;;;18.03;100.00
34925;BME280;21130;51.728;8.748;2023-10-19T10:41:07;98263.97;;;18.07;100.00
34925;BME280;21130;51.728;8.748;2023-10-19T10:43:51;98250.19;;;18.39;100.00
34925;BME280;21130;51.728;8.748;2023-10-19T10:46:20;98251.47;;;18.42;100.00
34925;BME280;21130;51.728;8.748;2023-10-19T10:48:46;98253.78;;;18.03;100.00
34925;BME280;21130;51.728;8.748;2023-10-19T10:51:21;98248.19;;;18.27;100.00
34925;BME280;21130;51.728;8.748;2023-10-19T10:53:49;98238.34;;;19.11;100.00
34925;BME280;21130;51.728;8.748;2023-10-19T10:56:19;98242.81;;;20.00;100.00
34925;BME280;21130;51.728;8.748;2023-10-19T10:58:45;98235.09;;;20.13;100.00
34925;BME280;21130;51.728;8.748;2023-10-19T11:01:12;98218.84;;;20.73;100.00
34925;BME280;21130;51.728;8.748;2023-10-19T11:03:39;98222.28;;;21.02;100.00
34925;BME280;21130;51.728;8.748;2023-10-19T11:06:06;98216.59;;;20.63;100.00
34925;BME280;21130;51.728;8.748;2023-10-19T11:08:34;98229.25;;;21.08;100.00
34925;BME280;21130;51.728;8.748;2023-10-19T11:11:03;98220.19;;;21.18;100.00
34925;BME280;21130;51.728;8.748;2023-10-19T11:13:32;98218.63;;;21.60;100.00
34925;BME280;21130;51.728;8.748;2023-10-19T11:16:04;98218.84;;;21.70;100.00
34925;BME280;21130;51.728;8.748;2023-10-19T11:18:35;98224.56;;;21.35;100.00
34925;BME280;21130;51.728;8.748;2023-10-19T11:21:05;98231.19;;;21.23;100.00
34925;BME280;21130;51.728;8.748;2023-10-19T11:23:40;98231.06;;;20.97;100.00
34925;BME280;21130;51.728;8.748;2023-10-19T11:26:08;98227.84;;;20.98;100.00
34925;BME280;21130;51.728;8.748;2023-10-19T11:28:36;98220.38;;;20.70;100.00
34925;BME280;21130;51.728;8.748;2023-10-19T11:31:16;98232.41;;;20.67;100.00
34925;BME280;21130;51.728;8.748;2023-10-19T11:33:44;98224.38;;;20.34;100.00
34925;BME280;21130;51.728;8.748;2023-10-19T11:36:11;98225.63;;;20.21;100.00
34925;BME280;21130;51.728;8.748;2023-10-19T11:38:41;98222.75;;;20.01;100.00
34925;BME280;21130;51.728;8.748;2023-10-19T11:41:09;98212.31;;;20.02;100.00
34925;BME280;21130;51.728;8.748;2023-10-19T11:43:38;98213.56;;;19.73;100.00
34925;BME280;21130;51.728;8.748;2023-10-19T11:46:04;98211.59;;;19.45;100.00
34925;BME280;21130;51.728;8.748;2023-10-19T11:48:32;98201.31;;;19.37;100.00
34925;BME280;21130;51.728;8.748;2023-10-19T11:50:59;98201.69;;;19.07;100.00
34925;BME280;21130;51.728;8.748;2023-10-19T11:53:29;98205.88;;;18.85;100.00
34925;BME280;21130;51.728;8.748;2023-10-19T11:55:58;98190.31;;;18.75;100.00
34925;BME280;21130;51.728;8.748;2023-10-19T11:58:26;98194.34;;;18.50;100.00
34925;BME280;21130;51.728;8.748;2023-10-19T12:00:53;98200.47;;;18.15;100.00
34925;BME280;21130;51.728;8.748;2023-10-19T12:03:20;98209.00;;;17.94;100.00
34925;BME280;21130;51.728;8.748;2023-10-19T12:05:47;98205.25;;;17.90;100.00
34925;BME280;21130;51.728;8.748;2023-10-19T12:08:13;98217.75;;;17.92;100.00
34925;BME280;21130;51.728;8.748;2023-10-19T12:10:40;98213.19;;;18.37;100.00
34925;BME280;21130;51.728;8.748;2023-10-19T12:13:06;98208.25;;;18.59;100.00
34925;BME280;21130;51.728;8.748;2023-10-19T12:15:34;98209.06;;;18.59;100.00
34925;BME280;21130;51.728;8.748;2023-10-19T12:18:02;98210.94;;;18.55;100.00
34925;BME280;21130;51.728;8.748;2023-10-19T12:20:29;98208.63;;;18.45;100.00
34925;BME280;21130;51.728;8.748;2023-10-19T12:22:57;98204.44;;;18.39;100.00
34925;BME280;21130;51.728;8.748;2023-10-19T12:25:24;98196.84;;;18.14;100.00
34925;BME280;21130;51.728;8.748;2023-10-19T12:27:55;98193.94;;;17.99;100.00
34925;BME280;21130;51.728;8.748;2023-10-19T12:30:22;98189.22;;;17.90;100.00
34925;BME280;21130;51.728;8.748;2023-10-19T12:32:51;98188.09;;;18.04;100.00
34925;BME280;21130;51.728;8.748;2023-10-19T12:35:19;98182.56;;;18.07;100.00
34925;BME280;21130;51.728;8.748;2023-10-19T12:37:49;98189.22;;;18.03;100.00
34925;BME280;21130;51.728;8.748;2023-10-19T12:40:17;98187.03;;;17.84;100.00
34925;BME280;21130;51.728;8.748;2023-10-19T12:42:53;98191.88;;;17.75;100.00
34925;BME280;21130;51.728;8.748;2023-10-19T12:45:21;98193.03;;;17.61;100.00
34925;BME280;21130;51.728;8.748;2023-10-19T12:47:48;98195.16;;;17.64;100.00
34925;BME280;21130;51.728;8.748;2023-10-19T12:50:15;98184.50;;;17.70;100.00
34925;BME280;21130;51.728;8.748;2023-10-19T12:52:43;98175.03;;;17.62;100.00
34925;BME280;21130;51.728;8.748;2023-10-19T12:55:10;98172.34;;;17.54;100.00
34925;BME280;21130;51.728;8.748;2023-10-19T12:57:37;98175.13;;;17.41;100.00
34925;BME280;21130;51.728;8.748;2023-10-19T13:00:04;98178.97;;;17.37;100.00
34925;BME280;21130;51.728;8.748;2023-10-19T13:02:49;98187.13;;;17.30;100.00
34925;BME280;21130;51.728;8.748;2023-10-19T13:17:40;98171.91;;;16.85;100.00
34925;BME280;21130;51.728;8.748;2023-10-19T13:20:08;98180.13;;;17.02;100.00